Time;durP1;ratioP1;P1;durP2;ratioP2;P2;SDS_P1;SDS_P2;PMS_P1;PMS_P2;Temp;Humidity;BMP_temperature;BMP_pressure;BME280_temperature;BME280_humidity;BME280_pressure;Samples;Min_cycle;Max_cycle;Signal;HPM_P1;HPM_P2
2023/09/10 00:01:14;;;;;;;6.83;6.22;;;19.40;88.20;;;;;;942793;149;27470;-74
2023/09/10 00:03:40;;;;;;;6.75;6.12;;;19.40;88.80;;;;;;960595;146;27458;-73
2023/09/10 00:06:07;;;;;;;6.22;5.72;;;19.40;89.60;;;;;;943338;149;27366;-73
2023/09/10 00:08:34;;;;;;;6.83;6.28;;;19.40;90.10;;;;;;946824;148;27388;-73
2023/09/10 00:11:00;;;;;;;6.53;6.03;;;19.30;90.40;;;;;;942830;149;27349;-74
2023/09/10 00:13:26;;;;;;;7.55;6.85;;;19.30;90.90;;;;;;961155;145;27336;-76
2023/09/10 00:15:53;;;;;;;6.37;5.87;;;19.30;91.30;;;;;;947549;148;27485;-72
2023/09/10 00:18:20;;;;;;;6.40;5.80;;;19.20;91.80;;;;;;960527;148;27292;-73
2023/09/10 00:20:46;;;;;;;6.78;6.17;;;19.20;92.30;;;;;;964402;146;27332;-73
2023/09/10 00:23:13;;;;;;;6.53;6.00;;;19.20;92.80;;;;;;959323;146;27295;-74
2023/09/10 00:25:39;;;;;;;6.78;6.17;;;19.20;93.20;;;;;;946444;148;27452;-73
2023/09/10 00:28:06;;;;;;;6.70;6.12;;;19.20;93.60;;;;;;946301;148;27336;-73
2023/09/10 00:30:33;;;;;;;6.80;6.20;;;19.20;93.90;;;;;;947078;149;27896;-74
2023/09/10 00:32:59;;;;;;;6.17;5.67;;;19.20;94.20;;;;;;963949;146;27434;-74
2023/09/10 00:35:26;;;;;;;6.45;5.90;;;19.20;94.40;;;;;;961615;146;27339;-76
2023/09/10 00:37:52;;;;;;;6.72;6.12;;;19.20;94.60;;;;;;962595;146;27434;-73
2023/09/10 00:40:19;;;;;;;6.83;6.22;;;19.20;94.90;;;;;;942889;149;27399;-74
2023/09/10 00:42:46;;;;;;;6.62;6.05;;;19.10;95.10;;;;;;946645;149;27433;-74
2023/09/10 00:45:12;;;;;;;6.28;5.78;;;19.10;95.40;;;;;;946838;149;27359;-74
2023/09/10 00:47:41;;;;;;;7.17;6.58;;;19.10;95.70;;;;;;951262;148;27375;-73
2023/09/10 00:50:09;;;;;;;6.28;5.67;;;19.10;95.80;;;;;;964491;146;27947;-73
2023/09/10 00:52:36;;;;;;;6.72;6.12;;;19.10;96.00;;;;;;959762;146;27413;-74
2023/09/10 00:55:01;;;;;;;6.40;5.90;;;19.00;96.40;;;;;;946684;148;27315;-76
2023/09/10 00:57:28;;;;;;;7.12;6.35;;;19.00;96.60;;;;;;966706;146;27350;-73
2023/09/10 00:59:54;;;;;;;6.75;6.25;;;19.00;97.00;;;;;;959650;148;27308;-72
2023/09/10 01:02:21;;;;;;;7.35;6.65;;;19.00;97.20;;;;;;964942;147;27315;-73
2023/09/10 01:04:48;;;;;;;8.00;7.20;;;18.90;97.40;;;;;;965857;146;27303;-74
2023/09/10 01:07:14;;;;;;;7.92;7.22;;;19.00;97.70;;;;;;957765;145;27368;-72
2023/09/10 01:09:41;;;;;;;8.10;7.50;;;18.90;97.90;;;;;;943655;149;27482;-73
2023/09/10 01:12:25;;;;;;;7.15;6.55;;;18.90;98.30;;;;;;963713;146;27333;-73
2023/09/10 01:14:52;;;;;;;6.83;6.22;;;18.90;98.40;;;;;;960637;148;27302;-73
2023/09/10 01:17:27;;;;;;;7.40;6.80;;;18.80;98.30;;;;;;965391;146;27439;-72
2023/09/10 01:20:12;;;;;;;7.15;6.45;;;18.80;98.40;;;;;;964499;146;27311;-76
2023/09/10 01:22:54;;;;;;;7.65;7.05;;;18.80;98.60;;;;;;963680;146;27468;-73
2023/09/10 01:25:20;;;;;;;7.17;6.58;;;18.70;98.60;;;;;;943396;149;27455;-73
2023/09/10 01:27:47;;;;;;;7.25;6.42;;;18.70;98.70;;;;;;959592;145;27419;-76
2023/09/10 01:30:13;;;;;;;8.70;6.30;;;18.70;99.00;;;;;;964805;146;27441;-73
2023/09/10 01:32:49;;;;;;;7.60;6.80;;;18.70;99.10;;;;;;966373;146;27315;-73
2023/09/10 01:35:18;;;;;;;7.00;6.40;;;18.60;99.50;;;;;;962158;146;27420;-74
2023/09/10 01:38:00;;;;;;;6.55;6.05;;;18.60;99.40;;;;;;944446;149;27330;-76
2023/09/10 01:40:33;;;;;;;6.55;6.05;;;18.60;99.50;;;;;;914149;153;27440;-74
2023/09/10 01:42:59;;;;;;;6.75;6.20;;;18.50;99.60;;;;;;942392;148;27304;-72
2023/09/10 01:45:26;;;;;;;7.00;6.40;;;18.50;99.80;;;;;;963730;146;27404;-73
2023/09/10 01:47:52;;;;;;;6.72;6.22;;;18.40;99.90;;;;;;960044;145;27361;-75
2023/09/10 01:50:19;;;;;;;7.20;6.60;;;18.40;99.90;;;;;;945552;148;27469;-72
2023/09/10 01:52:45;;;;;;;7.97;7.37;;;18.40;99.90;;;;;;946861;148;27427;-73
2023/09/10 01:55:12;;;;;;;8.73;7.10;;;18.40;99.90;;;;;;947122;148;27682;-73
2023/09/10 01:57:38;;;;;;;7.25;6.65;;;18.40;99.90;;;;;;965399;145;27403;-74
2023/09/10 02:00:07;;;;;;;7.28;6.67;;;18.40;99.90;;;;;;965155;146;27333;-73
2023/09/10 02:02:32;;;;;;;7.35;6.65;;;18.40;99.90;;;;;;967346;145;27960;-72
2023/09/10 02:04:59;;;;;;;8.20;7.50;;;18.30;99.90;;;;;;952776;147;27405;-73
2023/09/10 02:07:25;;;;;;;6.87;6.28;;;18.30;99.90;;;;;;954079;147;27299;-73
2023/09/10 02:09:51;;;;;;;7.53;6.83;;;18.30;99.90;;;;;;954409;147;27397;-74
2023/09/10 02:12:18;;;;;;;7.53;6.92;;;18.30;99.90;;;;;;950254;148;27448;-74
2023/09/10 02:14:48;;;;;;;7.87;7.05;;;18.30;99.90;;;;;;970272;145;27286;-72
2023/09/10 02:17:11;;;;;;;8.50;7.60;;;18.30;99.90;;;;;;948188;148;27325;-75
2023/09/10 02:19:38;;;;;;;7.58;6.90;;;18.30;99.90;;;;;;967850;145;27374;-75
2023/09/10 02:22:04;;;;;;;8.83;7.80;;;18.20;99.90;;;;;;967661;145;27425;-75
2023/09/10 02:24:31;;;;;;;7.83;7.10;;;18.20;99.90;;;;;;969094;145;27434;-75
2023/09/10 02:26:57;;;;;;;7.72;7.00;;;18.20;99.90;;;;;;963558;145;27345;-75
2023/09/10 02:29:24;;;;;;;7.78;7.17;;;18.20;99.90;;;;;;951367;148;27354;-75
2023/09/10 02:31:51;;;;;;;8.28;7.58;;;18.20;99.90;;;;;;965930;148;27309;-75
2023/09/10 02:34:17;;;;;;;7.95;7.15;;;18.10;99.90;;;;;;969319;145;27447;-75
2023/09/10 02:36:44;;;;;;;7.15;6.53;;;18.10;99.90;;;;;;970299;145;27365;-75
2023/09/10 02:39:10;;;;;;;7.85;7.15;;;18.10;99.90;;;;;;971499;145;27299;-74
2023/09/10 02:41:37;;;;;;;7.97;7.28;;;18.10;99.90;;;;;;970345;145;27275;-75
2023/09/10 02:44:04;;;;;;;8.05;7.35;;;18.10;99.90;;;;;;968995;145;27364;-75
2023/09/10 02:46:30;;;;;;;7.37;6.78;;;18.00;99.90;;;;;;968909;145;27422;-75
2023/09/10 02:48:57;;;;;;;7.87;7.25;;;18.00;99.90;;;;;;966369;145;27306;-75
2023/09/10 02:51:23;;;;;;;8.08;7.28;;;18.00;99.90;;;;;;962388;145;27386;-75
2023/09/10 02:53:50;;;;;;;8.28;6.92;;;18.00;99.90;;;;;;966999;145;27343;-75
2023/09/10 02:56:17;;;;;;;7.90;7.20;;;18.00;99.90;;;;;;950714;148;27358;-75
2023/09/10 02:58:43;;;;;;;7.90;7.17;;;17.90;99.90;;;;;;950530;148;27351;-75
2023/09/10 03:01:10;;;;;;;7.55;6.85;;;17.90;99.90;;;;;;951135;148;27268;-75
2023/09/10 03:03:36;;;;;;;10.63;7.58;;;17.90;99.90;;;;;;946646;148;27364;-75
2023/09/10 03:06:03;;;;;;;8.10;7.35;;;17.90;99.90;;;;;;946716;148;27372;-75
2023/09/10 03:08:35;;;;;;;7.28;6.67;;;17.90;99.90;;;;;;945391;149;27475;-73
2023/09/10 03:10:56;;;;;;;7.15;6.55;;;17.80;99.90;;;;;;945505;149;27393;-73
2023/09/10 03:13:23;;;;;;;7.40;6.80;;;17.80;99.90;;;;;;947480;148;27334;-74
2023/09/10 03:15:49;;;;;;;7.15;6.55;;;17.90;99.90;;;;;;965347;146;27341;-72
2023/09/10 03:18:16;;;;;;;7.10;6.40;;;17.80;99.90;;;;;;958038;147;27345;-73
2023/09/10 03:20:42;;;;;;;8.95;6.28;;;17.80;99.90;;;;;;961031;146;27326;-73
2023/09/10 03:23:09;;;;;;;7.05;6.45;;;17.80;99.90;;;;;;946889;149;27328;-73
2023/09/10 03:25:36;;;;;;;7.03;6.40;;;17.90;99.90;;;;;;946441;149;27408;-75
2023/09/10 03:28:02;;;;;;;7.45;6.85;;;17.80;99.90;;;;;;955948;148;27349;-74
2023/09/10 03:30:29;;;;;;;7.05;6.45;;;17.80;99.90;;;;;;947587;149;27884;-74
2023/09/10 03:32:56;;;;;;;6.70;6.00;;;17.80;99.90;;;;;;965175;146;27402;-75
2023/09/10 03:35:22;;;;;;;7.37;6.53;;;17.80;99.90;;;;;;960866;148;27303;-74
2023/09/10 03:37:49;;;;;;;7.58;6.90;;;17.80;99.90;;;;;;964190;146;27433;-74
2023/09/10 03:40:15;;;;;;;7.08;6.37;;;17.70;99.90;;;;;;945848;149;28436;-74
2023/09/10 03:42:42;;;;;;;7.00;6.40;;;17.70;99.90;;;;;;942674;149;27313;-75
2023/09/10 03:45:08;;;;;;;6.85;6.25;;;17.70;99.90;;;;;;959929;148;27342;-74
2023/09/10 03:47:35;;;;;;;7.55;6.95;;;17.70;99.90;;;;;;961818;146;27447;-75
2023/09/10 03:50:01;;;;;;;7.35;6.75;;;17.70;99.90;;;;;;962388;146;27327;-75
2023/09/10 03:52:28;;;;;;;7.78;7.08;;;17.70;99.90;;;;;;948487;148;27325;-74
2023/09/10 03:54:55;;;;;;;7.67;6.97;;;17.60;99.90;;;;;;948101;149;27453;-74
2023/09/10 03:57:21;;;;;;;7.17;6.47;;;17.60;99.90;;;;;;965630;146;27413;-75
2023/09/10 03:59:48;;;;;;;6.20;5.60;;;17.60;99.90;;;;;;963415;146;27342;-74
2023/09/10 04:02:14;;;;;;;8.03;7.20;;;17.60;99.90;;;;;;964994;146;27243;-74
2023/09/10 04:04:41;;;;;;;7.25;6.55;;;17.60;99.90;;;;;;942659;149;27426;-75
2023/09/10 04:07:08;;;;;;;7.28;6.60;;;17.50;99.90;;;;;;951786;147;27668;-75
2023/09/10 04:09:34;;;;;;;7.53;6.87;;;17.50;99.90;;;;;;949510;147;27427;-75
2023/09/10 04:12:01;;;;;;;6.70;6.17;;;17.40;99.90;;;;;;950155;147;28428;-74
2023/09/10 04:14:27;;;;;;;6.90;6.28;;;17.40;99.90;;;;;;943464;149;27341;-74
2023/09/10 04:16:54;;;;;;;7.30;6.70;;;17.40;99.90;;;;;;933536;147;27359;-74
2023/09/10 04:19:21;;;;;;;6.70;6.20;;;17.30;99.90;;;;;;946320;147;27331;-75
2023/09/10 04:21:47;;;;;;;6.65;6.05;;;17.30;99.90;;;;;;946213;147;27357;-74
2023/09/10 04:24:14;;;;;;;6.92;6.33;;;17.30;99.90;;;;;;933768;149;27342;-74
2023/09/10 04:26:40;;;;;;;7.03;6.42;;;17.30;99.90;;;;;;930767;149;27727;-75
2023/09/10 04:29:07;;;;;;;6.62;6.08;;;17.20;99.90;;;;;;947023;147;27436;-75
2023/09/10 04:31:35;;;;;;;7.25;6.62;;;17.20;99.90;;;;;;942840;147;27370;-74
2023/09/10 04:34:00;;;;;;;6.65;6.05;;;17.20;99.90;;;;;;943481;147;27485;-74
2023/09/10 04:36:27;;;;;;;6.90;6.40;;;17.20;99.90;;;;;;946302;147;27347;-73
2023/09/10 04:38:54;;;;;;;6.42;5.83;;;17.20;99.90;;;;;;949733;147;27323;-73
2023/09/10 04:41:20;;;;;;;6.60;6.10;;;17.20;99.90;;;;;;949645;148;27330;-75
2023/09/10 04:43:46;;;;;;;7.03;6.42;;;17.10;99.90;;;;;;950581;148;27979;-73
2023/09/10 04:46:13;;;;;;;6.90;6.30;;;17.10;99.90;;;;;;949147;148;27741;-73
2023/09/10 04:48:40;;;;;;;6.70;6.17;;;17.10;99.90;;;;;;949289;148;27336;-73
2023/09/10 04:51:07;;;;;;;7.60;6.20;;;17.10;99.90;;;;;;949015;148;27333;-75
2023/09/10 04:53:34;;;;;;;6.95;6.22;;;17.10;99.90;;;;;;949197;148;27463;-73
2023/09/10 04:55:59;;;;;;;6.45;5.95;;;17.00;99.90;;;;;;948515;148;27311;-73
2023/09/10 04:58:26;;;;;;;6.95;6.35;;;17.00;99.90;;;;;;949825;147;27340;-72
2023/09/10 05:00:53;;;;;;;6.83;6.20;;;17.00;99.90;;;;;;950321;148;27335;-74
2023/09/10 05:03:21;;;;;;;7.60;6.65;;;17.00;99.90;;;;;;950328;148;27403;-73
2023/09/10 05:05:46;;;;;;;6.78;6.17;;;17.00;99.90;;;;;;949111;148;27470;-72
2023/09/10 05:08:12;;;;;;;6.42;5.92;;;17.00;99.90;;;;;;950203;147;27319;-73
2023/09/10 05:10:39;;;;;;;7.17;6.50;;;17.00;99.90;;;;;;949021;148;27432;-72
2023/09/10 05:13:05;;;;;;;8.50;6.65;;;17.00;99.90;;;;;;948963;148;27682;-75
2023/09/10 05:15:32;;;;;;;6.85;6.30;;;17.00;99.90;;;;;;951375;147;27373;-73
2023/09/10 05:17:59;;;;;;;6.47;5.97;;;17.00;99.90;;;;;;948985;148;27352;-72
2023/09/10 05:20:25;;;;;;;7.33;6.62;;;17.00;99.90;;;;;;949354;147;27262;-73
2023/09/10 05:22:52;;;;;;;7.17;6.47;;;17.10;99.90;;;;;;949253;148;27671;-74
2023/09/10 05:25:18;;;;;;;7.12;6.42;;;17.10;99.90;;;;;;948828;148;27355;-72
2023/09/10 05:27:45;;;;;;;6.62;6.03;;;17.20;99.90;;;;;;948409;147;27738;-73
2023/09/10 05:30:12;;;;;;;6.95;6.37;;;17.40;99.90;;;;;;948190;148;27309;-73
2023/09/10 05:32:38;;;;;;;7.17;6.58;;;17.50;99.90;;;;;;949318;148;27328;-74
2023/09/10 05:35:05;;;;;;;6.85;6.22;;;17.80;99.90;;;;;;949832;148;27403;-74
2023/09/10 05:37:31;;;;;;;6.75;6.25;;;18.10;99.90;;;;;;949624;147;27452;-74
2023/09/10 05:39:58;;;;;;;6.40;5.80;;;18.40;99.90;;;;;;949165;148;27392;-73
2023/09/10 05:42:25;;;;;;;5.55;5.03;;;18.80;99.90;;;;;;949839;148;27321;-73
2023/09/10 05:44:52;;;;;;;5.12;4.67;;;19.20;99.90;;;;;;950920;148;27360;-76
2023/09/10 05:47:19;;;;;;;5.78;5.28;;;19.60;99.90;;;;;;949552;148;27364;-76
2023/09/10 05:49:44;;;;;;;5.40;5.00;;;20.10;99.90;;;;;;949419;148;27441;-77
2023/09/10 05:52:11;;;;;;;4.95;4.55;;;20.50;99.90;;;;;;948999;148;27284;-77
2023/09/10 05:54:38;;;;;;;6.50;4.80;;;21.00;99.90;;;;;;948251;148;27357;-76
2023/09/10 05:57:04;;;;;;;5.00;4.45;;;21.50;99.90;;;;;;948117;147;27380;-76
2023/09/10 05:59:31;;;;;;;4.92;4.53;;;22.00;99.90;;;;;;949005;148;27742;-77
2023/09/10 06:01:57;;;;;;;5.03;4.55;;;22.60;99.90;;;;;;950388;148;27794;-77
2023/09/10 06:04:24;;;;;;;5.30;4.85;;;23.10;99.90;;;;;;949654;148;27402;-77
2023/09/10 06:06:50;;;;;;;4.42;4.12;;;23.80;99.90;;;;;;950006;147;28250;-76
2023/09/10 06:09:17;;;;;;;4.65;4.35;;;24.30;99.90;;;;;;934568;149;27417;-77
2023/09/10 06:11:44;;;;;;;4.55;4.22;;;24.90;99.90;;;;;;935000;149;27412;-78
2023/09/10 06:14:10;;;;;;;4.53;4.20;;;25.50;98.90;;;;;;945424;149;27463;-77
2023/09/10 06:16:37;;;;;;;4.78;4.35;;;26.10;97.10;;;;;;946476;148;27875;-77
2023/09/10 06:19:03;;;;;;;5.20;4.70;;;26.70;94.30;;;;;;946398;149;27345;-78
2023/09/10 06:21:30;;;;;;;4.62;4.28;;;27.30;92.50;;;;;;944921;149;27808;-77
2023/09/10 06:23:57;;;;;;;4.97;4.47;;;27.80;90.50;;;;;;946106;146;27335;-77
2023/09/10 06:26:23;;;;;;;5.00;4.62;;;28.30;87.10;;;;;;948218;146;27241;-77
2023/09/10 06:28:50;;;;;;;4.25;3.85;;;28.80;84.80;;;;;;944745;146;27455;-74
2023/09/10 06:31:16;;;;;;;4.75;4.35;;;29.40;82.40;;;;;;934025;149;27384;-77
2023/09/10 06:33:43;;;;;;;4.05;3.75;;;29.90;80.10;;;;;;933732;150;27311;-77
2023/09/10 06:36:10;;;;;;;4.37;4.08;;;30.50;78.00;;;;;;945030;147;26221;-77
2023/09/10 06:38:36;;;;;;;4.97;4.42;;;31.00;76.10;;;;;;931827;150;27279;-77
2023/09/10 06:41:03;;;;;;;3.92;3.72;;;31.60;73.90;;;;;;946074;146;27325;-75
2023/09/10 06:43:31;;;;;;;4.55;4.15;;;32.10;71.90;;;;;;931843;150;27367;-78
2023/09/10 06:45:56;;;;;;;4.70;4.40;;;32.60;70.20;;;;;;953349;146;27256;-77
2023/09/10 06:48:22;;;;;;;5.17;4.78;;;33.20;68.40;;;;;;949403;147;26322;-77
2023/09/10 06:50:49;;;;;;;5.12;4.72;;;33.60;66.70;;;;;;930417;150;27378;-75
2023/09/10 06:53:16;;;;;;;5.15;4.75;;;34.20;64.90;;;;;;945952;148;26263;-77
2023/09/10 06:55:42;;;;;;;5.47;5.08;;;34.60;63.60;;;;;;945211;149;26244;-75
2023/09/10 06:58:09;;;;;;;5.60;5.10;;;35.00;62.40;;;;;;936139;148;26269;-75
2023/09/10 07:00:35;;;;;;;6.03;4.78;;;35.50;61.10;;;;;;944672;147;26221;-75
2023/09/10 07:03:05;;;;;;;4.85;4.55;;;35.90;59.80;;;;;;933462;149;26282;-75
2023/09/10 07:05:29;;;;;;;4.83;4.45;;;36.30;58.90;;;;;;944295;147;26334;-75
2023/09/10 07:07:55;;;;;;;5.20;4.80;;;36.70;57.80;;;;;;953732;147;26218;-75
2023/09/10 07:10:22;;;;;;;4.97;4.60;;;37.00;56.90;;;;;;970415;145;26194;-75
2023/09/10 07:12:48;;;;;;;4.65;4.35;;;37.30;56.00;;;;;;968396;145;26651;-75
2023/09/10 07:15:15;;;;;;;5.28;4.78;;;37.60;55.40;;;;;;969346;145;26257;-75
2023/09/10 07:17:42;;;;;;;5.42;4.92;;;37.90;54.80;;;;;;970871;145;26333;-75
2023/09/10 07:20:08;;;;;;;4.58;4.25;;;38.20;54.10;;;;;;953090;147;27792;-75
2023/09/10 07:22:35;;;;;;;4.95;4.65;;;38.50;53.50;;;;;;970189;145;27725;-75
2023/09/10 07:25:02;;;;;;;4.20;3.90;;;38.80;53.00;;;;;;956156;147;26622;-75
2023/09/10 07:27:28;;;;;;;4.40;3.62;;;39.10;52.40;;;;;;965586;145;26191;-75
2023/09/10 07:29:55;;;;;;;4.60;4.20;;;39.40;51.70;;;;;;966561;145;26215;-76
2023/09/10 07:32:21;;;;;;;4.50;4.20;;;39.80;51.20;;;;;;970274;145;26220;-75
2023/09/10 07:34:48;;;;;;;4.12;3.72;;;40.10;50.50;;;;;;964839;145;26250;-75
2023/09/10 07:37:14;;;;;;;3.95;3.65;;;40.40;49.90;;;;;;969142;145;27269;-75
2023/09/10 07:39:41;;;;;;;4.12;3.83;;;40.80;49.50;;;;;;971098;145;26198;-75
2023/09/10 07:42:07;;;;;;;5.28;4.30;;;41.00;48.70;;;;;;953724;147;26312;-75
2023/09/10 07:44:34;;;;;;;4.05;3.60;;;41.40;48.20;;;;;;952995;147;26215;-75
2023/09/10 07:47:01;;;;;;;3.40;3.10;;;41.70;47.60;;;;;;963553;145;26364;-75
2023/09/10 07:49:28;;;;;;;4.40;4.03;;;42.00;46.90;;;;;;963322;148;26274;-75
2023/09/10 07:51:54;;;;;;;3.50;3.25;;;42.30;46.10;;;;;;970889;145;26302;-76
2023/09/10 07:54:20;;;;;;;4.05;3.75;;;42.60;45.50;;;;;;970599;145;26218;-75
2023/09/10 07:56:47;;;;;;;3.90;3.62;;;42.90;44.80;;;;;;968713;145;26601;-75
2023/09/10 07:59:14;;;;;;;3.75;3.45;;;43.10;44.20;;;;;;972328;145;26274;-75
2023/09/10 08:01:40;;;;;;;3.83;3.52;;;43.30;43.80;;;;;;954425;147;26215;-75
2023/09/10 08:04:07;;;;;;;3.72;3.42;;;43.50;43.50;;;;;;953146;147;26203;-75
2023/09/10 08:06:33;;;;;;;3.60;3.30;;;43.60;43.00;;;;;;936691;147;26324;-76
2023/09/10 08:09:00;;;;;;;4.30;3.60;;;43.80;42.80;;;;;;933478;149;26297;-76
2023/09/10 08:11:27;;;;;;;3.47;3.27;;;44.00;42.30;;;;;;935211;149;26264;-76
2023/09/10 08:13:53;;;;;;;3.62;3.42;;;44.30;41.70;;;;;;933659;149;26238;-76
2023/09/10 08:16:20;;;;;;;3.77;3.45;;;44.50;41.30;;;;;;934191;149;26351;-76
2023/09/10 08:18:46;;;;;;;3.47;3.25;;;44.70;40.80;;;;;;946125;149;26265;-76
2023/09/10 08:21:13;;;;;;;3.52;3.33;;;44.90;40.50;;;;;;945736;149;26350;-76
2023/09/10 08:23:40;;;;;;;3.60;3.40;;;45.10;40.00;;;;;;942371;149;26242;-76
2023/09/10 08:26:06;;;;;;;3.92;3.50;;;45.20;39.50;;;;;;943894;149;28200;-76
2023/09/10 08:28:33;;;;;;;3.92;3.62;;;45.40;39.30;;;;;;948007;146;26219;-76
2023/09/10 08:30:59;;;;;;;5.20;3.75;;;45.50;39.00;;;;;;943264;147;26254;-76
2023/09/10 08:33:26;;;;;;;3.98;3.58;;;45.60;38.50;;;;;;945019;147;26218;-75
2023/09/10 08:35:52;;;;;;;4.00;3.70;;;45.80;38.00;;;;;;944961;147;26230;-76
2023/09/10 08:38:19;;;;;;;3.30;3.08;;;45.90;38.30;;;;;;951816;147;26232;-76
2023/09/10 08:41:00;;;;;;;3.45;3.25;;;46.00;37.70;;;;;;943301;149;26272;-76
2023/09/10 08:43:39;;;;;;;3.62;3.42;;;46.00;37.50;;;;;;950595;147;26213;-76
2023/09/10 08:46:06;;;;;;;3.90;3.60;;;46.20;37.10;;;;;;948466;147;26306;-76
2023/09/10 08:48:32;;;;;;;4.55;3.42;;;46.30;37.60;;;;;;940705;148;26288;-74
2023/09/10 08:50:59;;;;;;;3.60;3.30;;;46.40;36.60;;;;;;949698;147;26288;-74
2023/09/10 08:53:26;;;;;;;3.45;3.15;;;46.60;36.40;;;;;;950389;147;26260;-74
2023/09/10 08:55:52;;;;;;;3.25;3.02;;;46.60;35.90;;;;;;947481;147;26270;-74
2023/09/10 08:58:19;;;;;;;3.15;2.95;;;46.70;35.70;;;;;;951645;147;26302;-74
2023/09/10 09:00:45;;;;;;;3.58;3.30;;;46.70;35.60;;;;;;940290;148;26281;-74
2023/09/10 09:03:12;;;;;;;3.77;3.47;;;46.80;35.40;;;;;;944380;147;26240;-74
2023/09/10 09:05:38;;;;;;;3.40;3.20;;;46.80;35.20;;;;;;929210;149;26328;-74
2023/09/10 09:08:05;;;;;;;3.10;2.83;;;46.90;35.20;;;;;;930323;150;26325;-74
2023/09/10 09:10:33;;;;;;;3.20;3.00;;;47.00;34.90;;;;;;918189;149;26269;-75
2023/09/10 09:13:04;;;;;;;3.20;3.00;;;47.00;34.70;;;;;;932056;150;26299;-74
2023/09/10 09:15:31;;;;;;;3.50;3.20;;;47.10;34.70;;;;;;946973;147;26240;-73
2023/09/10 09:17:57;;;;;;;3.15;2.95;;;47.20;34.40;;;;;;942915;147;26700;-73
2023/09/10 09:20:24;;;;;;;3.45;3.20;;;47.30;34.20;;;;;;932782;149;27724;-74
2023/09/10 09:22:56;;;;;;;3.20;3.00;;;47.20;33.80;;;;;;950352;147;26241;-74
2023/09/10 09:25:22;;;;;;;3.62;2.95;;;47.20;33.60;;;;;;935567;149;26280;-74
2023/09/10 09:27:49;;;;;;;2.98;2.77;;;47.10;33.60;;;;;;949227;147;26578;-74
2023/09/10 09:30:16;;;;;;;3.12;2.92;;;47.00;33.50;;;;;;949512;147;26287;-74
2023/09/10 09:32:43;;;;;;;3.17;2.95;;;46.90;33.40;;;;;;950102;148;26333;-73
2023/09/10 09:35:12;;;;;;;3.12;2.92;;;46.90;33.30;;;;;;949337;148;26254;-74
2023/09/10 09:37:38;;;;;;;3.27;2.92;;;46.80;33.30;;;;;;949995;147;26656;-74
2023/09/10 09:40:09;;;;;;;2.77;2.65;;;46.70;33.20;;;;;;949800;148;26307;-73
2023/09/10 09:42:31;;;;;;;3.60;3.10;;;46.70;33.30;;;;;;949050;148;26260;-74
2023/09/10 09:44:58;;;;;;;3.27;2.98;;;46.60;33.80;;;;;;948872;148;26241;-74
2023/09/10 09:47:25;;;;;;;3.37;3.08;;;46.40;33.00;;;;;;949493;147;26235;-74
2023/09/10 09:49:51;;;;;;;3.00;2.80;;;46.30;32.90;;;;;;949573;148;26368;-74
2023/09/10 09:52:18;;;;;;;6.42;3.05;;;46.10;33.00;;;;;;949583;148;26267;-74
2023/09/10 09:54:47;;;;;;;3.22;3.02;;;45.80;33.10;;;;;;949798;148;26251;-74
2023/09/10 09:57:13;;;;;;;3.40;3.10;;;45.40;33.00;;;;;;949290;148;26272;-74
2023/09/10 09:59:40;;;;;;;3.30;3.10;;;45.10;33.10;;;;;;949673;148;26757;-73
2023/09/10 10:02:16;;;;;;;4.90;3.05;;;44.70;33.40;;;;;;949369;147;26371;-74
2023/09/10 10:04:45;;;;;;;3.62;3.33;;;44.40;33.20;;;;;;949337;148;26332;-74
2023/09/10 10:07:12;;;;;;;3.67;2.80;;;44.00;33.30;;;;;;948617;147;26396;-74
2023/09/10 10:09:38;;;;;;;4.08;3.27;;;43.60;33.40;;;;;;950716;150;27460;-73
2023/09/10 10:12:05;;;;;;;3.90;3.60;;;43.20;33.40;;;;;;933483;150;27012;-73
2023/09/10 10:14:31;;;;;;;3.65;3.45;;;42.80;33.30;;;;;;955733;147;26225;-74
2023/09/10 10:17:01;;;;;;;3.80;3.50;;;42.40;33.40;;;;;;937374;150;27318;-73
2023/09/10 10:19:27;;;;;;;3.52;3.33;;;42.00;33.60;;;;;;952368;147;26289;-73
2023/09/10 10:21:54;;;;;;;3.72;3.52;;;41.60;34.00;;;;;;951580;147;26345;-74
2023/09/10 10:24:20;;;;;;;3.70;3.40;;;41.30;34.00;;;;;;932162;151;26276;-73
2023/09/10 10:26:47;;;;;;;4.15;3.65;;;40.90;33.90;;;;;;955315;148;26303;-74
2023/09/10 10:29:14;;;;;;;4.00;3.35;;;40.50;34.30;;;;;;955194;147;26256;-74
2023/09/10 10:31:40;;;;;;;4.03;3.62;;;40.20;34.60;;;;;;951689;147;26254;-74
2023/09/10 10:34:10;;;;;;;4.12;3.72;;;39.90;34.90;;;;;;952339;149;26225;-74
2023/09/10 10:36:48;;;;;;;5.10;3.35;;;39.50;35.30;;;;;;950474;147;26706;-74
2023/09/10 10:39:15;;;;;;;4.15;3.75;;;39.20;35.50;;;;;;932935;149;26238;-74
2023/09/10 10:41:44;;;;;;;5.00;4.12;;;39.00;36.10;;;;;;941895;149;26241;-74
2023/09/10 10:44:20;;;;;;;4.12;3.77;;;38.70;36.10;;;;;;941372;152;26310;-74
2023/09/10 10:46:46;;;;;;;4.85;3.83;;;38.50;36.30;;;;;;939541;150;26221;-74
2023/09/10 10:49:13;;;;;;;5.53;3.92;;;38.30;36.60;;;;;;950672;147;27471;-74
2023/09/10 10:51:40;;;;;;;4.42;3.90;;;38.10;37.10;;;;;;951837;147;26247;-74
2023/09/10 10:54:06;;;;;;;4.33;3.90;;;37.90;37.40;;;;;;949674;147;26287;-74
2023/09/10 10:56:33;;;;;;;4.78;4.00;;;37.70;37.40;;;;;;953293;149;26345;-74
2023/09/10 10:58:59;;;;;;;3.70;3.50;;;37.50;37.90;;;;;;953355;147;27446;-74
2023/09/10 11:01:27;;;;;;;4.15;3.55;;;37.30;38.10;;;;;;937294;150;26256;-74
2023/09/10 11:03:52;;;;;;;3.92;3.60;;;37.20;38.30;;;;;;938690;151;27428;-74
2023/09/10 11:06:19;;;;;;;4.30;3.90;;;37.00;38.40;;;;;;953614;149;27428;-74
2023/09/10 11:08:49;;;;;;;5.28;4.08;;;36.90;38.60;;;;;;957162;146;26356;-74
2023/09/10 11:11:34;;;;;;;4.10;3.70;;;36.70;38.60;;;;;;958460;146;26295;-74
2023/09/10 11:14:01;;;;;;;5.25;4.08;;;36.50;38.80;;;;;;961257;146;27360;-74
2023/09/10 11:16:30;;;;;;;6.00;3.87;;;36.30;39.10;;;;;;960458;146;27292;-74
2023/09/10 11:18:56;;;;;;;4.60;4.20;;;36.10;39.40;;;;;;958883;148;27331;-74
2023/09/10 11:21:23;;;;;;;6.03;3.92;;;35.90;39.60;;;;;;963783;146;27393;-74
2023/09/10 11:23:52;;;;;;;3.83;3.52;;;35.70;39.70;;;;;;954211;145;27443;-74
2023/09/10 11:26:22;;;;;;;5.10;4.08;;;35.60;39.90;;;;;;964457;146;27336;-74
2023/09/10 11:28:51;;;;;;;7.12;4.65;;;35.50;40.40;;;;;;943382;149;27355;-74
2023/09/10 11:31:38;;;;;;;4.83;4.33;;;35.40;40.80;;;;;;959954;145;27443;-74
2023/09/10 11:34:28;;;;;;;5.20;4.28;;;35.30;40.50;;;;;;945940;148;27295;-76
2023/09/10 11:36:55;;;;;;;4.28;3.87;;;35.20;40.50;;;;;;961756;145;27389;-78
2023/09/10 11:39:22;;;;;;;4.08;3.67;;;35.20;40.80;;;;;;957980;146;27338;-78
2023/09/10 11:41:48;;;;;;;6.60;3.98;;;35.10;40.50;;;;;;964678;146;27411;-79
2023/09/10 11:44:15;;;;;;;5.33;4.03;;;35.00;40.40;;;;;;944413;148;27552;-79
2023/09/10 11:46:42;;;;;;;4.05;3.75;;;35.00;40.50;;;;;;959621;145;27295;-75
2023/09/10 11:49:08;;;;;;;3.95;3.65;;;35.00;40.70;;;;;;943494;148;27299;-79
2023/09/10 11:51:41;;;;;;;4.80;4.25;;;34.90;40.90;;;;;;944476;149;27388;-75
2023/09/10 11:54:07;;;;;;;5.00;3.27;;;34.90;40.80;;;;;;945349;148;27536;-78
2023/09/10 11:56:34;;;;;;;3.60;3.30;;;34.80;40.60;;;;;;962726;146;27335;-76
2023/09/10 11:59:01;;;;;;;3.83;3.47;;;34.80;40.60;;;;;;960671;145;27388;-80
2023/09/10 12:01:28;;;;;;;4.47;3.52;;;34.70;40.30;;;;;;957677;145;27319;-75
2023/09/10 12:03:54;;;;;;;6.42;3.70;;;34.60;40.40;;;;;;961384;146;27437;-80
2023/09/10 12:06:20;;;;;;;7.35;3.60;;;34.50;40.90;;;;;;966027;146;27284;-79
2023/09/10 12:08:47;;;;;;;7.83;3.67;;;34.40;41.00;;;;;;963797;146;27439;-79
2023/09/10 12:11:14;;;;;;;5.00;3.60;;;34.30;41.90;;;;;;953495;147;27343;-79
2023/09/10 12:13:40;;;;;;;3.98;3.62;;;34.30;41.40;;;;;;949211;147;27380;-79
2023/09/10 12:16:07;;;;;;;5.10;3.65;;;34.20;41.60;;;;;;966202;145;27354;-79
2023/09/10 12:18:33;;;;;;;4.35;3.95;;;34.20;41.50;;;;;;968907;145;27307;-79
2023/09/10 12:21:00;;;;;;;4.67;3.60;;;34.20;42.20;;;;;;969158;145;27311;-78
2023/09/10 12:23:27;;;;;;;5.58;3.47;;;34.30;41.70;;;;;;954087;148;27350;-75
2023/09/10 12:25:59;;;;;;;4.62;3.37;;;34.30;41.60;;;;;;968320;145;27486;-79
2023/09/10 12:28:26;;;;;;;4.87;3.37;;;34.30;41.40;;;;;;970916;145;27283;-79
2023/09/10 12:30:52;;;;;;;8.95;3.67;;;34.30;41.70;;;;;;953555;147;27400;-79
2023/09/10 12:33:20;;;;;;;8.95;3.62;;;34.30;41.70;;;;;;953597;148;27393;-75
2023/09/10 12:35:45;;;;;;;4.05;3.60;;;34.20;41.40;;;;;;969423;145;27865;-80
2023/09/10 12:38:12;;;;;;;5.92;3.47;;;34.20;41.60;;;;;;961892;145;27319;-78
2023/09/10 12:40:38;;;;;;;6.12;3.65;;;34.20;41.50;;;;;;962899;148;27427;-79
2023/09/10 12:43:05;;;;;;;7.83;3.47;;;34.20;41.70;;;;;;962735;148;27395;-77
2023/09/10 12:45:34;;;;;;;7.20;3.75;;;34.20;41.30;;;;;;963425;145;27331;-77
2023/09/10 12:48:01;;;;;;;7.33;3.67;;;34.20;41.20;;;;;;962155;145;27805;-75